• Join FlightAware (Why Join?)
  • Login
  • US Flag 
12:44AM EDT


 

Airport Tracker/Info


-or-


 

Live Flight TrackerFlight Track Log ✈ UAL256 ✈ 30-Apr-2013 ✈ KSAN - KDEN

Flight Track Log - Related Links

Times and Time Zones

All times are in EDT time to prevent confusion due to time zone crossing. See the UAL256 flight status page for this flight to view local times or setup timezone preferences in your user account.

Time Position Orientation Groundspeed Altitude Reporting Facility
EDT Latitude Longitude Course Direction KTS MPH feet Rate Location/Type
06:19PM 32.7436 -117.2353 16° North 167 192 1,700  Level Los Angeles Center
06:20PM 32.7539 -117.3044 280° West 206 237 3,400 2,460 Climbing Los Angeles Center
06:21PM 32.6177 -116.7663 18° North  Level FlightAware Approximate
06:21PM 32.6778 -117.2856 168° South 256 295 6,800  Level Los Angeles Center
06:22PM 32.7325 -116.7233 18° North  Level FlightAware Approximate
06:22PM 32.6442 -117.2058 117° Southeast 288 331 9,400  Level Los Angeles Center
06:23PM 32.8474 -116.6811 19° North  Level FlightAware Approximate
06:24PM 32.9627 -116.6402 16° North  Level FlightAware Approximate
06:24PM 32.6114 -116.9861 100° East 349 402 13,200  Level Los Angeles Center
06:25PM 32.6217 -116.8631 84° East 372 428 15,300 2,220 Climbing Los Angeles Center
06:26PM 32.6806 -116.7392 61° Northeast 390 449 17,800 2,100 Climbing Los Angeles Center
06:27PM 32.7892 -116.7142 11° North 395 455 19,700 1,680 Climbing Los Angeles Center
06:28PM 32.8817 -116.6394 34° Northeast 403 464 21,300 1,500 Climbing Los Angeles Center
06:29PM 32.9381 -116.5492 53° Northeast 414 476 22,900 1,560 Climbing Los Angeles Center
06:30PM 33.0214 -116.4167 53° Northeast 424 488 24,600 1,320 Climbing Los Angeles Center
06:31PM 33.1272 -116.3372 32° Northeast 442 509 25,700 1,200 Climbing Los Angeles Center
06:32PM 33.2444 -116.2978 16° North 436 502 27,100 1,320 Climbing Los Angeles Center
06:33PM 33.3611 -116.2550 17° North 439 505 28,500 1,140 Climbing Los Angeles Center
06:34PM 33.4719 -116.1336 42° Northeast 454 522 29,500 1,020 Climbing Los Angeles Center
06:35PM 33.5600 -116.0253 46° Northeast 453 521 30,700 1,140 Climbing Los Angeles Center
06:36PM 33.6464 -115.9150 47° Northeast 455 524 31,900 1,020 Climbing Los Angeles Center
06:37PM 33.7339 -115.8058 46° Northeast 454 522 32,900 1,020 Climbing Los Angeles Center
06:38PM 33.8206 -115.6950 47° Northeast 454 522 34,100 960 Climbing Los Angeles Center
06:39PM 33.9072 -115.5858 46° Northeast 451 519 34,900 360 Climbing Los Angeles Center
06:40PM 34.0094 -115.4547 47° Northeast 448 516 34,900  Level Los Angeles Center
06:41PM 34.0947 -115.3458 47° Northeast 449 517 34,900  Level Los Angeles Center
06:42PM 34.1806 -115.2367 46° Northeast 449 517 34,900  Level Los Angeles Center
06:43PM 34.2658 -115.1250 47° Northeast 451 519 34,900  Level Los Angeles Center
06:44PM 34.3514 -115.0147 47° Northeast 451 519 35,000  Climbing Los Angeles Center
06:46PM 34.4375 -114.9044 47° Northeast 451 519 35,000 -60 Level Los Angeles Center
06:47PM 34.5236 -114.7925 47° Northeast 454 522 34,900 -60 Descending Los Angeles Center
06:48PM 34.6261 -114.6578 47° Northeast 453 521 34,900  Level Los Angeles Center
06:49PM 34.7056 -114.5522 48° Northeast 463 533 35,000  Climbing Los Angeles Center
06:50PM 34.7933 -114.4417 46° Northeast 456 525 35,000  Level Los Angeles Center
06:51PM 34.9078 -114.3203 41° Northeast 456 525 35,000  Level Los Angeles Center
06:52PM 35.0006 -114.2139 43° Northeast 461 531 35,000  Level Los Angeles Center
06:53PM 35.0578 -114.1097 56° Northeast 463 533 35,000  Level Los Angeles Center
06:54PM 35.1478 -113.9553 54° Northeast 465 535 35,000 -60 Level Los Angeles Center
06:55PM 35.2311 -113.8097 55° Northeast 466 536 34,900 -60 Descending Los Angeles Center
06:56PM 35.3042 -113.6822 55° Northeast 460 529 34,900  Level Los Angeles Center
06:57PM 35.3769 -113.5544 55° Northeast 459 528 34,900  Level Los Angeles Center
06:58PM 35.4517 -113.4244 55° Northeast 465 535 35,000  Climbing Los Angeles Center
06:59PM 35.5261 -113.2911 56° Northeast 470 541 35,000  Level Los Angeles Center
07:00PM 35.6036 -113.1514 56° Northeast 468 539 35,000  Level Los Angeles Center
07:01PM 35.6625 -113.0458 56° Northeast 469 540 35,000  Level Los Angeles Center
07:02PM 35.7622 -112.8639 56° Northeast 473 544 35,000  Level Los Angeles Center
07:03PM 35.8369 -112.7289 56° Northeast 476 548 35,000  Level Los Angeles Center
07:04PM 35.9097 -112.5939 56° Northeast 476 548 35,000  Level Los Angeles Center
07:05PM 35.9892 -112.4508 56° Northeast 472 543 35,000  Level Los Angeles Center
07:06PM 36.0619 -112.3164 56° Northeast 473 544 35,000  Level Los Angeles Center
07:07PM 36.1297 -112.1914 56° Northeast 474 545 35,000  Level Los Angeles Center
07:08PM 36.2069 -112.0461 57° Northeast 473 544 35,000  Level Los Angeles Center
07:09PM 36.2950 -111.8842 56° Northeast 475 547 35,000  Level Los Angeles Center
07:10PM 36.3519 -111.7767 57° Northeast 476 548 35,000  Level Denver Center
07:11PM 36.4244 -111.6411 56° Northeast 475 547 35,000  Level Denver Center
07:12PM 36.4975 -111.5044 56° Northeast 476 548 35,000  Level Denver Center
07:13PM 36.5708 -111.3653 57° Northeast 479 551 35,000  Level Denver Center
07:14PM 36.6586 -111.1978 57° Northeast 482 555 35,000  Level Denver Center
07:15PM 36.7325 -111.0567 57° Northeast 486 559 35,000  Level Denver Center
07:16PM 36.8067 -110.9164 57° Northeast 486 559 35,000  Level Denver Center
07:17PM 36.8794 -110.7750 57° Northeast 487 560 35,000  Level Denver Center
07:18PM 36.9528 -110.6336 57° Northeast 487 560 35,000  Level Denver Center
07:20PM 37.0256 -110.4911 57° Northeast 489 563 35,000  Level Denver Center
07:21PM 37.1292 -110.2900 57° Northeast 492 566 35,000  Level Denver Center
07:22PM 37.2000 -110.1500 58° Northeast 492 566 35,000  Level Denver Center
07:23PM 37.2706 -110.0125 57° Northeast 489 563 35,000  Level Denver Center
07:24PM 37.3533 -109.8500 57° Northeast 493 567 35,000  Level Denver Center
07:25PM 37.4464 -109.6650 58° Northeast 489 563 35,000  Level Denver Center
07:26PM 37.5050 -109.5472 58° Northeast 493 567 35,000  Level Denver Center
07:27PM 37.6100 -109.3364 58° Northeast 492 566 35,000  Level Denver Center
07:28PM 37.6800 -109.1944 58° Northeast 496 571 35,000  Level Denver Center
07:29PM 37.7614 -109.0297 58° Northeast 494 568 35,000  Level Denver Center
07:30PM 37.8314 -108.8875 58° Northeast 496 571 35,000  Level Denver Center
07:31PM 37.9019 -108.7456 58° Northeast 497 572 35,000  Level Denver Center
07:32PM 37.9833 -108.5772 58° Northeast 501 577 35,000  Level Denver Center
07:33PM 38.0525 -108.4322 59° Northeast 501 577 35,000  Level Denver Center
07:34PM 38.1272 -108.2750 59° Northeast 506 582 35,000  Level Denver Center
07:36PM 38.2081 -108.1089 58° Northeast 498 573 35,000  Level Denver Center
07:37PM 38.2761 -107.9650 59° Northeast 498 573 35,000 -60 Level Denver Center
07:38PM 38.3567 -107.7961 59° Northeast 499 574 34,900 -60 Descending Denver Center
07:39PM 38.4242 -107.6514 59° Northeast 499 574 34,900  Level Denver Center
07:40PM 38.5044 -107.4792 59° Northeast 505 581 35,000  Climbing Denver Center
07:41PM 38.5703 -107.3281 61° Northeast 507 583 35,000 -1,020 Level Denver Center
07:42PM 38.6461 -107.1606 60° Northeast 509 586 33,000 -1,920 Descending Denver Center
07:43PM 38.7153 -107.0050 60° Northeast 503 579 31,100 -1,800 Descending Denver Center
07:44PM 38.7811 -106.8542 61° Northeast 489 563 29,300 -1,620 Descending Denver Center
07:45PM 38.8461 -106.7094 60° Northeast 471 542 27,900 -1,140 Descending Denver Center
07:46PM 38.9133 -106.5592 60° Northeast 468 539 27,000 -480 Descending Denver Center
07:47PM 38.9864 -106.4003 59° Northeast 466 536 27,000  Level Denver Center
07:48PM 39.0397 -106.2864 59° Northeast 466 536 27,000 -840 Level Denver Center
07:49PM 39.1144 -106.1203 60° Northeast 461 531 25,200 -1,680 Descending Denver Center
07:50PM 39.1867 -105.9561 60° Northeast 449 517 23,200 -1,920 Descending Denver Center
07:51PM 39.2556 -105.7986 61° Northeast 430 495 21,300 -1,800 Descending Denver Center
07:52PM 39.3133 -105.6689 60° Northeast 417 480 19,600 -1,680 Descending Denver Center
07:53PM 39.3675 -105.5436 61° Northeast 401 461 17,900 -1,380 Descending Denver Center
07:54PM 39.3989 -105.4061 74° East 375 432 16,800 -1,200 Descending Denver Center
07:55PM 39.4050 -105.2817 86° East 354 407 15,500 -1,320 Descending Denver Center
07:56PM 39.4108 -105.1486 87° East 349 402 14,100 -960 Descending Denver Center
07:58PM 39.4150 -105.0322 87° East 329 379 13,400 -540 Descending Denver Center
07:59PM 39.4542 -104.9133 67° East 291 335 12,900 -600 Descending Denver Center
08:00PM 39.5036 -104.8244 54° Northeast 292 336 12,200 -900 Descending Denver Center
08:01PM 39.5594 -104.7522 45° Northeast 287 330 10,900 -1,140 Descending Denver Center
08:02PM 39.6350 -104.6911 32° Northeast 263 303 9,700 -1,200 Descending Denver Center